sensor_id;sensor_type;location;lat;lon;timestamp;temperature;humidity
8611;DHT22;4343;53.648;10.098;2023-08-06T00:01:29;17.20;99.90
8611;DHT22;4343;53.648;10.098;2023-08-06T00:03:54;17.20;99.90
8611;DHT22;4343;53.648;10.098;2023-08-06T00:06:20;17.20;99.90
8611;DHT22;4343;53.648;10.098;2023-08-06T00:08:45;17.10;99.90
8611;DHT22;4343;53.648;10.098;2023-08-06T00:11:11;17.10;99.90
8611;DHT22;4343;53.648;10.098;2023-08-06T00:13:38;17.10;99.90
8611;DHT22;4343;53.648;10.098;2023-08-06T00:16:11;17.00;99.90
8611;DHT22;4343;53.648;10.098;2023-08-06T00:18:37;17.10;99.90
8611;DHT22;4343;53.648;10.098;2023-08-06T00:21:02;17.00;99.90
8611;DHT22;4343;53.648;10.098;2023-08-06T00:23:28;17.00;99.90
8611;DHT22;4343;53.648;10.098;2023-08-06T00:25:53;17.00;99.90
8611;DHT22;4343;53.648;10.098;2023-08-06T00:28:19;17.00;99.90
8611;DHT22;4343;53.648;10.098;2023-08-06T00:30:44;17.00;99.90
8611;DHT22;4343;53.648;10.098;2023-08-06T00:33:10;17.00;99.90
8611;DHT22;4343;53.648;10.098;2023-08-06T00:35:35;17.00;99.90
8611;DHT22;4343;53.648;10.098;2023-08-06T00:38:01;17.00;99.90
8611;DHT22;4343;53.648;10.098;2023-08-06T00:40:26;16.90;99.90
8611;DHT22;4343;53.648;10.098;2023-08-06T00:42:54;16.90;99.90
8611;DHT22;4343;53.648;10.098;2023-08-06T00:45:19;16.90;99.90
8611;DHT22;4343;53.648;10.098;2023-08-06T00:47:45;16.90;99.90
8611;DHT22;4343;53.648;10.098;2023-08-06T00:50:11;16.90;99.90
8611;DHT22;4343;53.648;10.098;2023-08-06T00:52:37;16.90;99.90
8611;DHT22;4343;53.648;10.098;2023-08-06T00:55:03;16.90;99.90
8611;DHT22;4343;53.648;10.098;2023-08-06T00:57:29;16.80;99.90
8611;DHT22;4343;53.648;10.098;2023-08-06T00:59:55;16.80;99.90
8611;DHT22;4343;53.648;10.098;2023-08-06T01:02:20;16.80;99.90
8611;DHT22;4343;53.648;10.098;2023-08-06T01:04:46;16.80;99.90
8611;DHT22;4343;53.648;10.098;2023-08-06T01:09:49;16.80;99.90
8611;DHT22;4343;53.648;10.098;2023-08-06T01:12:51;16.80;99.90
8611;DHT22;4343;53.648;10.098;2023-08-06T01:15:27;16.70;99.90
8611;DHT22;4343;53.648;10.098;2023-08-06T01:17:53;16.70;99.90
8611;DHT22;4343;53.648;10.098;2023-08-06T01:20:19;16.70;99.90
8611;DHT22;4343;53.648;10.098;2023-08-06T01:22:45;16.70;99.90
8611;DHT22;4343;53.648;10.098;2023-08-06T01:25:12;16.70;99.90
8611;DHT22;4343;53.648;10.098;2023-08-06T01:27:46;16.70;99.90
8611;DHT22;4343;53.648;10.098;2023-08-06T01:30:20;16.70;99.90
8611;DHT22;4343;53.648;10.098;2023-08-06T01:32:50;16.70;99.90
8611;DHT22;4343;53.648;10.098;2023-08-06T01:35:19;16.70;99.90
8611;DHT22;4343;53.648;10.098;2023-08-06T01:37:45;16.70;99.90
8611;DHT22;4343;53.648;10.098;2023-08-06T01:40:12;16.60;99.90
8611;DHT22;4343;53.648;10.098;2023-08-06T01:42:39;16.60;99.90
8611;DHT22;4343;53.648;10.098;2023-08-06T01:45:08;16.60;99.90
8611;DHT22;4343;53.648;10.098;2023-08-06T01:47:34;16.60;99.90
8611;DHT22;4343;53.648;10.098;2023-08-06T01:50:00;16.60;99.90
8611;DHT22;4343;53.648;10.098;2023-08-06T01:52:26;16.60;99.90
8611;DHT22;4343;53.648;10.098;2023-08-06T01:54:52;16.60;99.90
8611;DHT22;4343;53.648;10.098;2023-08-06T01:57:17;16.60;99.90
8611;DHT22;4343;53.648;10.098;2023-08-06T01:59:43;16.60;99.90
8611;DHT22;4343;53.648;10.098;2023-08-06T02:02:09;16.50;99.90
8611;DHT22;4343;53.648;10.098;2023-08-06T02:04:34;16.50;99.90
8611;DHT22;4343;53.648;10.098;2023-08-06T02:07:00;16.50;99.90
8611;DHT22;4343;53.648;10.098;2023-08-06T02:09:25;16.50;99.90
8611;DHT22;4343;53.648;10.098;2023-08-06T02:11:51;16.50;99.90
8611;DHT22;4343;53.648;10.098;2023-08-06T02:14:17;16.40;99.90
8611;DHT22;4343;53.648;10.098;2023-08-06T02:16:42;16.40;99.90
8611;DHT22;4343;53.648;10.098;2023-08-06T02:19:08;16.40;99.90
8611;DHT22;4343;53.648;10.098;2023-08-06T02:21:33;16.40;99.90
8611;DHT22;4343;53.648;10.098;2023-08-06T02:23:59;16.30;99.90
8611;DHT22;4343;53.648;10.098;2023-08-06T02:26:24;16.30;99.90
8611;DHT22;4343;53.648;10.098;2023-08-06T02:28:50;16.30;99.90
8611;DHT22;4343;53.648;10.098;2023-08-06T02:31:15;16.30;99.90
8611;DHT22;4343;53.648;10.098;2023-08-06T02:33:41;16.30;99.90
8611;DHT22;4343;53.648;10.098;2023-08-06T02:36:06;16.30;99.90
8611;DHT22;4343;53.648;10.098;2023-08-06T02:38:32;16.30;99.90
8611;DHT22;4343;53.648;10.098;2023-08-06T02:40:58;16.20;99.90
8611;DHT22;4343;53.648;10.098;2023-08-06T02:43:23;16.20;99.90
8611;DHT22;4343;53.648;10.098;2023-08-06T02:45:49;16.20;99.90
8611;DHT22;4343;53.648;10.098;2023-08-06T02:48:15;16.20;99.90
8611;DHT22;4343;53.648;10.098;2023-08-06T02:50:41;16.20;99.90
8611;DHT22;4343;53.648;10.098;2023-08-06T02:53:09;16.10;99.90
8611;DHT22;4343;53.648;10.098;2023-08-06T02:55:35;16.10;99.90
8611;DHT22;4343;53.648;10.098;2023-08-06T02:58:01;16.10;99.90
8611;DHT22;4343;53.648;10.098;2023-08-06T03:00:27;16.10;99.90
8611;DHT22;4343;53.648;10.098;2023-08-06T03:02:53;16.10;99.90
8611;DHT22;4343;53.648;10.098;2023-08-06T03:05:19;16.10;99.90
8611;DHT22;4343;53.648;10.098;2023-08-06T03:07:44;16.10;99.90
8611;DHT22;4343;53.648;10.098;2023-08-06T03:10:10;16.10;99.90
8611;DHT22;4343;53.648;10.098;2023-08-06T03:12:35;16.10;99.90
8611;DHT22;4343;53.648;10.098;2023-08-06T03:15:01;16.00;99.90
8611;DHT22;4343;53.648;10.098;2023-08-06T03:17:26;16.00;99.90
8611;DHT22;4343;53.648;10.098;2023-08-06T03:19:52;16.00;99.90
8611;DHT22;4343;53.648;10.098;2023-08-06T03:22:17;16.00;99.90
8611;DHT22;4343;53.648;10.098;2023-08-06T03:24:43;16.00;99.90
8611;DHT22;4343;53.648;10.098;2023-08-06T03:27:08;16.00;99.90
8611;DHT22;4343;53.648;10.098;2023-08-06T03:29:34;16.00;99.90
8611;DHT22;4343;53.648;10.098;2023-08-06T03:31:59;16.00;99.90
8611;DHT22;4343;53.648;10.098;2023-08-06T03:34:25;16.00;99.90
8611;DHT22;4343;53.648;10.098;2023-08-06T03:36:50;16.00;99.90
8611;DHT22;4343;53.648;10.098;2023-08-06T03:39:16;16.00;99.90
8611;DHT22;4343;53.648;10.098;2023-08-06T03:41:41;16.00;99.90
8611;DHT22;4343;53.648;10.098;2023-08-06T03:44:07;15.90;99.90
8611;DHT22;4343;53.648;10.098;2023-08-06T03:46:32;15.90;99.90
8611;DHT22;4343;53.648;10.098;2023-08-06T03:48:59;15.90;99.90
8611;DHT22;4343;53.648;10.098;2023-08-06T03:51:25;15.90;99.90
8611;DHT22;4343;53.648;10.098;2023-08-06T03:53:50;15.90;99.90
8611;DHT22;4343;53.648;10.098;2023-08-06T03:56:16;15.80;99.90
8611;DHT22;4343;53.648;10.098;2023-08-06T03:58:41;15.80;99.90
8611;DHT22;4343;53.648;10.098;2023-08-06T04:01:07;15.80;99.90
8611;DHT22;4343;53.648;10.098;2023-08-06T04:03:33;15.80;99.90
8611;DHT22;4343;53.648;10.098;2023-08-06T04:05:58;15.80;99.90
8611;DHT22;4343;53.648;10.098;2023-08-06T04:08:24;15.80;99.90
8611;DHT22;4343;53.648;10.098;2023-08-06T04:10:51;15.80;99.90
8611;DHT22;4343;53.648;10.098;2023-08-06T04:13:17;15.80;99.90
8611;DHT22;4343;53.648;10.098;2023-08-06T04:15:42;15.80;99.90
8611;DHT22;4343;53.648;10.098;2023-08-06T04:18:08;15.70;99.90
8611;DHT22;4343;53.648;10.098;2023-08-06T04:20:33;15.70;99.90
8611;DHT22;4343;53.648;10.098;2023-08-06T04:22:59;15.70;99.90
8611;DHT22;4343;53.648;10.098;2023-08-06T04:25:24;15.70;99.90
8611;DHT22;4343;53.648;10.098;2023-08-06T04:27:50;15.70;99.90
8611;DHT22;4343;53.648;10.098;2023-08-06T04:30:16;15.70;99.90
8611;DHT22;4343;53.648;10.098;2023-08-06T04:32:42;15.70;99.90
8611;DHT22;4343;53.648;10.098;2023-08-06T04:35:08;15.70;99.90
8611;DHT22;4343;53.648;10.098;2023-08-06T04:37:33;15.60;99.90
8611;DHT22;4343;53.648;10.098;2023-08-06T04:39:59;15.70;99.90
8611;DHT22;4343;53.648;10.098;2023-08-06T04:42:24;15.70;99.90
8611;DHT22;4343;53.648;10.098;2023-08-06T04:44:50;15.60;99.90
8611;DHT22;4343;53.648;10.098;2023-08-06T04:47:16;15.60;99.90
8611;DHT22;4343;53.648;10.098;2023-08-06T04:49:41;15.60;99.90
8611;DHT22;4343;53.648;10.098;2023-08-06T04:52:07;15.60;99.90
8611;DHT22;4343;53.648;10.098;2023-08-06T04:54:33;15.60;99.90
8611;DHT22;4343;53.648;10.098;2023-08-06T04:56:58;15.60;99.90
8611;DHT22;4343;53.648;10.098;2023-08-06T04:59:24;15.60;99.90
8611;DHT22;4343;53.648;10.098;2023-08-06T05:01:49;15.60;99.90
8611;DHT22;4343;53.648;10.098;2023-08-06T05:04:15;15.60;99.90
8611;DHT22;4343;53.648;10.098;2023-08-06T05:06:40;15.60;99.90
8611;DHT22;4343;53.648;10.098;2023-08-06T05:09:06;15.60;99.90
8611;DHT22;4343;53.648;10.098;2023-08-06T05:11:32;15.60;99.90
8611;DHT22;4343;53.648;10.098;2023-08-06T05:13:57;15.60;99.90
8611;DHT22;4343;53.648;10.098;2023-08-06T05:16:23;15.60;99.90
8611;DHT22;4343;53.648;10.098;2023-08-06T05:18:49;15.60;99.90
8611;DHT22;4343;53.648;10.098;2023-08-06T05:21:14;15.60;99.90
8611;DHT22;4343;53.648;10.098;2023-08-06T05:23:42;15.60;99.90
8611;DHT22;4343;53.648;10.098;2023-08-06T05:26:07;15.60;99.90
8611;DHT22;4343;53.648;10.098;2023-08-06T05:28:33;15.60;99.90
8611;DHT22;4343;53.648;10.098;2023-08-06T05:31:03;15.60;99.90
8611;DHT22;4343;53.648;10.098;2023-08-06T05:33:28;15.60;99.90
8611;DHT22;4343;53.648;10.098;2023-08-06T05:35:54;15.60;99.90
8611;DHT22;4343;53.648;10.098;2023-08-06T05:38:19;15.60;99.90
8611;DHT22;4343;53.648;10.098;2023-08-06T05:40:45;15.60;99.90
8611;DHT22;4343;53.648;10.098;2023-08-06T05:43:10;15.70;99.90
8611;DHT22;4343;53.648;10.098;2023-08-06T05:45:36;15.70;99.90
8611;DHT22;4343;53.648;10.098;2023-08-06T05:48:01;15.60;99.90
8611;DHT22;4343;53.648;10.098;2023-08-06T05:50:27;15.70;99.90
8611;DHT22;4343;53.648;10.098;2023-08-06T05:52:52;15.70;99.90
8611;DHT22;4343;53.648;10.098;2023-08-06T05:55:19;15.70;99.90
8611;DHT22;4343;53.648;10.098;2023-08-06T05:57:45;15.70;99.90
8611;DHT22;4343;53.648;10.098;2023-08-06T06:00:11;15.70;99.90
8611;DHT22;4343;53.648;10.098;2023-08-06T06:02:37;15.80;99.90
8611;DHT22;4343;53.648;10.098;2023-08-06T06:05:02;15.80;99.90
8611;DHT22;4343;53.648;10.098;2023-08-06T06:07:28;15.80;99.90
8611;DHT22;4343;53.648;10.098;2023-08-06T06:09:53;15.80;99.90
8611;DHT22;4343;53.648;10.098;2023-08-06T06:12:19;15.80;99.90
8611;DHT22;4343;53.648;10.098;2023-08-06T06:14:44;15.80;99.90
8611;DHT22;4343;53.648;10.098;2023-08-06T06:17:10;15.80;99.90
8611;DHT22;4343;53.648;10.098;2023-08-06T06:19:35;15.80;99.90
8611;DHT22;4343;53.648;10.098;2023-08-06T06:22:01;15.80;99.90
8611;DHT22;4343;53.648;10.098;2023-08-06T06:24:26;15.90;99.90
8611;DHT22;4343;53.648;10.098;2023-08-06T06:26:52;15.80;99.90
8611;DHT22;4343;53.648;10.098;2023-08-06T06:29:17;15.90;99.90
8611;DHT22;4343;53.648;10.098;2023-08-06T06:31:43;15.90;99.90
8611;DHT22;4343;53.648;10.098;2023-08-06T06:34:08;15.90;99.90
8611;DHT22;4343;53.648;10.098;2023-08-06T06:36:34;15.90;99.90
8611;DHT22;4343;53.648;10.098;2023-08-06T06:38:59;15.90;99.90
8611;DHT22;4343;53.648;10.098;2023-08-06T06:41:25;15.90;99.90
8611;DHT22;4343;53.648;10.098;2023-08-06T06:43:51;15.90;99.90
8611;DHT22;4343;53.648;10.098;2023-08-06T06:46:17;15.90;99.90
8611;DHT22;4343;53.648;10.098;2023-08-06T06:48:42;16.00;99.90
8611;DHT22;4343;53.648;10.098;2023-08-06T06:51:08;16.00;99.90
8611;DHT22;4343;53.648;10.098;2023-08-06T06:53:33;16.00;99.90
8611;DHT22;4343;53.648;10.098;2023-08-06T06:56:03;16.00;99.90
8611;DHT22;4343;53.648;10.098;2023-08-06T06:58:30;16.00;99.90
8611;DHT22;4343;53.648;10.098;2023-08-06T07:00:55;16.00;99.90
8611;DHT22;4343;53.648;10.098;2023-08-06T07:03:21;16.00;99.90
8611;DHT22;4343;53.648;10.098;2023-08-06T07:05:46;16.10;99.90
8611;DHT22;4343;53.648;10.098;2023-08-06T07:08:12;16.00;99.90
8611;DHT22;4343;53.648;10.098;2023-08-06T07:10:37;16.00;99.90
8611;DHT22;4343;53.648;10.098;2023-08-06T07:13:03;16.00;99.90
8611;DHT22;4343;53.648;10.098;2023-08-06T07:15:29;16.10;99.90
8611;DHT22;4343;53.648;10.098;2023-08-06T07:17:54;16.10;99.90
8611;DHT22;4343;53.648;10.098;2023-08-06T07:20:20;16.10;99.90
8611;DHT22;4343;53.648;10.098;2023-08-06T07:22:46;16.10;99.90
8611;DHT22;4343;53.648;10.098;2023-08-06T07:25:11;16.10;99.90
8611;DHT22;4343;53.648;10.098;2023-08-06T07:27:37;16.20;99.90
8611;DHT22;4343;53.648;10.098;2023-08-06T07:30:03;16.10;99.90
8611;DHT22;4343;53.648;10.098;2023-08-06T07:32:30;16.20;99.90
8611;DHT22;4343;53.648;10.098;2023-08-06T07:34:56;16.20;99.90
8611;DHT22;4343;53.648;10.098;2023-08-06T07:37:25;16.20;99.90
8611;DHT22;4343;53.648;10.098;2023-08-06T07:39:50;16.30;99.90
8611;DHT22;4343;53.648;10.098;2023-08-06T07:42:16;16.30;99.90
8611;DHT22;4343;53.648;10.098;2023-08-06T07:44:41;16.30;99.90
8611;DHT22;4343;53.648;10.098;2023-08-06T07:47:07;16.30;99.90
8611;DHT22;4343;53.648;10.098;2023-08-06T07:49:33;16.40;99.90
8611;DHT22;4343;53.648;10.098;2023-08-06T07:51:58;16.40;99.90
8611;DHT22;4343;53.648;10.098;2023-08-06T07:54:23;16.40;99.90
8611;DHT22;4343;53.648;10.098;2023-08-06T07:56:50;16.50;99.90
8611;DHT22;4343;53.648;10.098;2023-08-06T07:59:15;16.40;99.90
8611;DHT22;4343;53.648;10.098;2023-08-06T08:01:41;16.50;99.90
8611;DHT22;4343;53.648;10.098;2023-08-06T08:04:06;16.50;99.90
8611;DHT22;4343;53.648;10.098;2023-08-06T08:06:33;16.50;99.90
8611;DHT22;4343;53.648;10.098;2023-08-06T08:08:58;16.60;99.90
8611;DHT22;4343;53.648;10.098;2023-08-06T08:11:25;16.60;99.90
8611;DHT22;4343;53.648;10.098;2023-08-06T08:13:50;16.60;99.90
8611;DHT22;4343;53.648;10.098;2023-08-06T08:16:16;16.60;99.90
8611;DHT22;4343;53.648;10.098;2023-08-06T08:18:41;16.60;99.90
8611;DHT22;4343;53.648;10.098;2023-08-06T08:21:07;16.60;99.90
8611;DHT22;4343;53.648;10.098;2023-08-06T08:23:32;16.70;99.90
8611;DHT22;4343;53.648;10.098;2023-08-06T08:25:58;16.70;99.90
8611;DHT22;4343;53.648;10.098;2023-08-06T08:28:24;16.70;99.90
8611;DHT22;4343;53.648;10.098;2023-08-06T08:30:49;16.80;99.90
8611;DHT22;4343;53.648;10.098;2023-08-06T08:33:15;16.80;99.90
8611;DHT22;4343;53.648;10.098;2023-08-06T08:35:40;16.80;99.90
8611;DHT22;4343;53.648;10.098;2023-08-06T08:38:06;16.80;99.90
8611;DHT22;4343;53.648;10.098;2023-08-06T08:40:32;16.90;99.90
8611;DHT22;4343;53.648;10.098;2023-08-06T08:42:59;16.90;99.90
8611;DHT22;4343;53.648;10.098;2023-08-06T08:45:28;17.00;99.90
8611;DHT22;4343;53.648;10.098;2023-08-06T08:47:54;17.00;99.90
8611;DHT22;4343;53.648;10.098;2023-08-06T08:50:20;17.00;99.90
8611;DHT22;4343;53.648;10.098;2023-08-06T08:52:46;17.10;99.90
8611;DHT22;4343;53.648;10.098;2023-08-06T08:55:15;17.10;99.90
8611;DHT22;4343;53.648;10.098;2023-08-06T08:57:40;17.10;99.90
8611;DHT22;4343;53.648;10.098;2023-08-06T09:00:06;17.10;99.90
8611;DHT22;4343;53.648;10.098;2023-08-06T09:02:33;17.20;99.90
8611;DHT22;4343;53.648;10.098;2023-08-06T09:05:00;17.20;99.90
8611;DHT22;4343;53.648;10.098;2023-08-06T09:07:32;17.20;99.90
8611;DHT22;4343;53.648;10.098;2023-08-06T09:09:59;17.20;99.90
8611;DHT22;4343;53.648;10.098;2023-08-06T09:12:27;17.30;99.90
8611;DHT22;4343;53.648;10.098;2023-08-06T09:14:52;17.30;99.90
8611;DHT22;4343;53.648;10.098;2023-08-06T09:17:19;17.30;99.90
8611;DHT22;4343;53.648;10.098;2023-08-06T09:19:46;17.30;99.90
8611;DHT22;4343;53.648;10.098;2023-08-06T09:22:13;17.30;99.90
8611;DHT22;4343;53.648;10.098;2023-08-06T09:24:43;17.30;99.90
8611;DHT22;4343;53.648;10.098;2023-08-06T09:27:13;17.30;99.90
8611;DHT22;4343;53.648;10.098;2023-08-06T09:29:41;17.30;99.90
8611;DHT22;4343;53.648;10.098;2023-08-06T09:32:07;17.20;99.90
8611;DHT22;4343;53.648;10.098;2023-08-06T09:34:32;17.20;99.90
8611;DHT22;4343;53.648;10.098;2023-08-06T09:36:58;17.20;99.90
8611;DHT22;4343;53.648;10.098;2023-08-06T09:39:28;17.20;99.90
8611;DHT22;4343;53.648;10.098;2023-08-06T09:41:56;17.10;99.90
8611;DHT22;4343;53.648;10.098;2023-08-06T09:44:22;17.10;99.90
8611;DHT22;4343;53.648;10.098;2023-08-06T09:46:56;17.10;99.90
8611;DHT22;4343;53.648;10.098;2023-08-06T09:49:28;17.10;99.90
8611;DHT22;4343;53.648;10.098;2023-08-06T09:52:05;17.10;99.90
8611;DHT22;4343;53.648;10.098;2023-08-06T09:54:31;17.10;99.90
8611;DHT22;4343;53.648;10.098;2023-08-06T09:56:57;17.10;99.90
8611;DHT22;4343;53.648;10.098;2023-08-06T09:59:23;17.10;99.90
8611;DHT22;4343;53.648;10.098;2023-08-06T10:01:49;17.00;99.90
8611;DHT22;4343;53.648;10.098;2023-08-06T10:04:15;17.00;99.90
8611;DHT22;4343;53.648;10.098;2023-08-06T10:06:46;17.00;99.90
8611;DHT22;4343;53.648;10.098;2023-08-06T10:09:13;17.00;99.90
8611;DHT22;4343;53.648;10.098;2023-08-06T10:11:39;17.00;99.90
8611;DHT22;4343;53.648;10.098;2023-08-06T10:14:20;17.00;99.90
8611;DHT22;4343;53.648;10.098;2023-08-06T10:16:47;16.90;99.90
8611;DHT22;4343;53.648;10.098;2023-08-06T10:19:13;16.90;99.90
8611;DHT22;4343;53.648;10.098;2023-08-06T10:21:40;16.90;99.90
8611;DHT22;4343;53.648;10.098;2023-08-06T10:24:09;16.90;99.90
8611;DHT22;4343;53.648;10.098;2023-08-06T10:26:35;16.90;99.90
8611;DHT22;4343;53.648;10.098;2023-08-06T10:29:01;16.90;99.90
8611;DHT22;4343;53.648;10.098;2023-08-06T10:31:55;16.90;99.90
8611;DHT22;4343;53.648;10.098;2023-08-06T10:34:23;16.90;99.90
8611;DHT22;4343;53.648;10.098;2023-08-06T10:36:49;16.90;99.90
8611;DHT22;4343;53.648;10.098;2023-08-06T10:39:15;16.90;99.90
8611;DHT22;4343;53.648;10.098;2023-08-06T10:41:42;16.90;99.90
8611;DHT22;4343;53.648;10.098;2023-08-06T10:44:09;16.90;99.90
8611;DHT22;4343;53.648;10.098;2023-08-06T10:46:36;16.90;99.90
8611;DHT22;4343;53.648;10.098;2023-08-06T10:49:02;17.00;99.90
8611;DHT22;4343;53.648;10.098;2023-08-06T10:51:28;17.00;99.90
8611;DHT22;4343;53.648;10.098;2023-08-06T10:53:54;17.00;99.90
8611;DHT22;4343;53.648;10.098;2023-08-06T10:56:25;17.00;99.90
8611;DHT22;4343;53.648;10.098;2023-08-06T10:58:53;17.00;99.90
8611;DHT22;4343;53.648;10.098;2023-08-06T11:01:19;16.90;99.90
8611;DHT22;4343;53.648;10.098;2023-08-06T11:03:46;17.00;99.90
8611;DHT22;4343;53.648;10.098;2023-08-06T11:06:20;17.00;99.90
8611;DHT22;4343;53.648;10.098;2023-08-06T11:08:53;17.00;99.90
8611;DHT22;4343;53.648;10.098;2023-08-06T11:11:20;17.00;99.90
8611;DHT22;4343;53.648;10.098;2023-08-06T11:13:47;17.00;99.90
8611;DHT22;4343;53.648;10.098;2023-08-06T11:16:17;17.00;99.90
8611;DHT22;4343;53.648;10.098;2023-08-06T11:18:44;17.00;99.90
8611;DHT22;4343;53.648;10.098;2023-08-06T11:21:09;17.00;99.90
8611;DHT22;4343;53.648;10.098;2023-08-06T11:23:35;17.00;99.90
8611;DHT22;4343;53.648;10.098;2023-08-06T11:26:01;17.00;99.90
8611;DHT22;4343;53.648;10.098;2023-08-06T11:28:27;17.10;99.90
8611;DHT22;4343;53.648;10.098;2023-08-06T11:30:53;17.10;99.90
8611;DHT22;4343;53.648;10.098;2023-08-06T11:33:24;17.10;99.90
8611;DHT22;4343;53.648;10.098;2023-08-06T11:35:55;17.10;99.90
8611;DHT22;4343;53.648;10.098;2023-08-06T11:38:21;17.10;99.90
8611;DHT22;4343;53.648;10.098;2023-08-06T11:40:50;17.10;99.90
8611;DHT22;4343;53.648;10.098;2023-08-06T11:43:19;17.10;99.90
8611;DHT22;4343;53.648;10.098;2023-08-06T11:45:44;17.20;99.90
8611;DHT22;4343;53.648;10.098;2023-08-06T11:48:10;17.20;99.90
8611;DHT22;4343;53.648;10.098;2023-08-06T11:50:38;17.20;99.90
8611;DHT22;4343;53.648;10.098;2023-08-06T11:53:04;17.20;99.90
8611;DHT22;4343;53.648;10.098;2023-08-06T11:55:30;17.20;99.90
8611;DHT22;4343;53.648;10.098;2023-08-06T11:57:56;17.20;99.90
8611;DHT22;4343;53.648;10.098;2023-08-06T12:00:25;17.30;99.90
8611;DHT22;4343;53.648;10.098;2023-08-06T12:02:52;17.30;99.90
8611;DHT22;4343;53.648;10.098;2023-08-06T12:05:23;17.30;99.90
8611;DHT22;4343;53.648;10.098;2023-08-06T12:07:58;17.30;99.90
8611;DHT22;4343;53.648;10.098;2023-08-06T12:10:26;17.40;99.90
8611;DHT22;4343;53.648;10.098;2023-08-06T12:12:53;17.40;99.90
8611;DHT22;4343;53.648;10.098;2023-08-06T12:15:19;17.40;99.90
8611;DHT22;4343;53.648;10.098;2023-08-06T12:17:44;17.40;99.90
8611;DHT22;4343;53.648;10.098;2023-08-06T12:20:10;17.50;99.90
8611;DHT22;4343;53.648;10.098;2023-08-06T12:22:37;17.50;99.90
8611;DHT22;4343;53.648;10.098;2023-08-06T12:25:05;17.60;99.90
8611;DHT22;4343;53.648;10.098;2023-08-06T12:27:36;17.60;99.90
8611;DHT22;4343;53.648;10.098;2023-08-06T12:30:03;17.70;99.90
8611;DHT22;4343;53.648;10.098;2023-08-06T12:32:29;17.70;99.90
8611;DHT22;4343;53.648;10.098;2023-08-06T12:34:54;17.70;99.90
8611;DHT22;4343;53.648;10.098;2023-08-06T12:37:20;17.80;99.90
8611;DHT22;4343;53.648;10.098;2023-08-06T12:39:45;17.80;99.90
8611;DHT22;4343;53.648;10.098;2023-08-06T12:42:11;17.90;99.90
8611;DHT22;4343;53.648;10.098;2023-08-06T12:44:36;17.90;99.90
8611;DHT22;4343;53.648;10.098;2023-08-06T12:47:02;17.90;99.90
8611;DHT22;4343;53.648;10.098;2023-08-06T12:49:28;17.90;99.90
8611;DHT22;4343;53.648;10.098;2023-08-06T12:51:55;18.00;99.90
8611;DHT22;4343;53.648;10.098;2023-08-06T12:54:22;18.00;99.90
8611;DHT22;4343;53.648;10.098;2023-08-06T12:56:48;18.00;99.90
8611;DHT22;4343;53.648;10.098;2023-08-06T12:59:15;18.10;99.90
8611;DHT22;4343;53.648;10.098;2023-08-06T13:01:41;18.10;99.90
8611;DHT22;4343;53.648;10.098;2023-08-06T13:04:07;18.20;99.90
8611;DHT22;4343;53.648;10.098;2023-08-06T13:06:32;18.20;99.90
8611;DHT22;4343;53.648;10.098;2023-08-06T13:09:11;18.30;99.90
8611;DHT22;4343;53.648;10.098;2023-08-06T13:11:37;18.40;99.90
8611;DHT22;4343;53.648;10.098;2023-08-06T13:14:10;18.50;99.90
8611;DHT22;4343;53.648;10.098;2023-08-06T13:16:38;18.50;99.90
8611;DHT22;4343;53.648;10.098;2023-08-06T13:19:05;18.50;99.90
8611;DHT22;4343;53.648;10.098;2023-08-06T13:21:35;18.60;99.90
8611;DHT22;4343;53.648;10.098;2023-08-06T13:24:02;18.60;99.90
8611;DHT22;4343;53.648;10.098;2023-08-06T13:26:31;18.70;99.90
8611;DHT22;4343;53.648;10.098;2023-08-06T13:28:57;18.70;99.90
8611;DHT22;4343;53.648;10.098;2023-08-06T13:31:23;18.80;99.90
8611;DHT22;4343;53.648;10.098;2023-08-06T13:33:49;18.80;99.90
8611;DHT22;4343;53.648;10.098;2023-08-06T13:36:18;18.90;99.90
8611;DHT22;4343;53.648;10.098;2023-08-06T13:38:43;18.90;99.90
8611;DHT22;4343;53.648;10.098;2023-08-06T13:41:09;18.90;99.90
8611;DHT22;4343;53.648;10.098;2023-08-06T13:43:34;18.90;99.90
8611;DHT22;4343;53.648;10.098;2023-08-06T13:46:00;18.90;99.90
8611;DHT22;4343;53.648;10.098;2023-08-06T13:48:27;18.90;99.90
8611;DHT22;4343;53.648;10.098;2023-08-06T13:50:52;18.90;99.90
8611;DHT22;4343;53.648;10.098;2023-08-06T13:53:18;18.90;99.90
8611;DHT22;4343;53.648;10.098;2023-08-06T13:55:43;18.90;99.90
8611;DHT22;4343;53.648;10.098;2023-08-06T13:58:09;18.90;99.90
8611;DHT22;4343;53.648;10.098;2023-08-06T14:00:36;18.90;99.90
8611;DHT22;4343;53.648;10.098;2023-08-06T14:03:02;18.80;99.90
8611;DHT22;4343;53.648;10.098;2023-08-06T14:05:27;18.80;99.90
8611;DHT22;4343;53.648;10.098;2023-08-06T14:07:53;18.80;99.90
8611;DHT22;4343;53.648;10.098;2023-08-06T14:10:18;18.80;99.90
8611;DHT22;4343;53.648;10.098;2023-08-06T14:12:44;18.80;99.90
8611;DHT22;4343;53.648;10.098;2023-08-06T14:15:11;18.80;99.90
8611;DHT22;4343;53.648;10.098;2023-08-06T14:17:36;18.70;99.90
8611;DHT22;4343;53.648;10.098;2023-08-06T14:20:02;18.70;99.90
8611;DHT22;4343;53.648;10.098;2023-08-06T14:22:32;18.70;99.90
8611;DHT22;4343;53.648;10.098;2023-08-06T14:24:58;18.70;99.90
8611;DHT22;4343;53.648;10.098;2023-08-06T14:27:24;18.60;99.90
8611;DHT22;4343;53.648;10.098;2023-08-06T14:29:50;18.60;99.90
8611;DHT22;4343;53.648;10.098;2023-08-06T14:32:15;18.50;99.90
8611;DHT22;4343;53.648;10.098;2023-08-06T14:34:43;18.50;99.90
8611;DHT22;4343;53.648;10.098;2023-08-06T14:37:09;18.50;99.90
8611;DHT22;4343;53.648;10.098;2023-08-06T14:39:35;18.40;99.90
8611;DHT22;4343;53.648;10.098;2023-08-06T14:42:00;18.40;99.90
8611;DHT22;4343;53.648;10.098;2023-08-06T14:44:26;18.30;99.90
8611;DHT22;4343;53.648;10.098;2023-08-06T14:46:51;18.30;99.90
8611;DHT22;4343;53.648;10.098;2023-08-06T14:49:17;18.30;99.90
8611;DHT22;4343;53.648;10.098;2023-08-06T14:51:42;18.30;99.90
8611;DHT22;4343;53.648;10.098;2023-08-06T14:54:08;18.30;99.90
8611;DHT22;4343;53.648;10.098;2023-08-06T14:56:33;18.30;99.90
8611;DHT22;4343;53.648;10.098;2023-08-06T14:58:59;18.30;99.90
8611;DHT22;4343;53.648;10.098;2023-08-06T15:01:24;18.30;99.90
8611;DHT22;4343;53.648;10.098;2023-08-06T15:03:50;18.40;99.90
8611;DHT22;4343;53.648;10.098;2023-08-06T15:06:15;18.40;99.90
8611;DHT22;4343;53.648;10.098;2023-08-06T15:08:41;18.40;99.90
8611;DHT22;4343;53.648;10.098;2023-08-06T15:11:09;18.30;99.90
8611;DHT22;4343;53.648;10.098;2023-08-06T15:13:34;18.30;99.90
8611;DHT22;4343;53.648;10.098;2023-08-06T15:16:00;18.30;99.90
8611;DHT22;4343;53.648;10.098;2023-08-06T15:18:26;18.30;99.90
8611;DHT22;4343;53.648;10.098;2023-08-06T15:20:51;18.30;99.90
8611;DHT22;4343;53.648;10.098;2023-08-06T15:23:17;18.30;99.90
8611;DHT22;4343;53.648;10.098;2023-08-06T15:25:42;18.30;99.90
8611;DHT22;4343;53.648;10.098;2023-08-06T15:28:08;18.20;99.90
8611;DHT22;4343;53.648;10.098;2023-08-06T15:30:33;18.20;99.90
8611;DHT22;4343;53.648;10.098;2023-08-06T15:32:59;18.20;99.90
8611;DHT22;4343;53.648;10.098;2023-08-06T15:35:24;18.20;99.90
8611;DHT22;4343;53.648;10.098;2023-08-06T15:37:50;18.20;99.90
8611;DHT22;4343;53.648;10.098;2023-08-06T15:40:16;18.20;99.90
8611;DHT22;4343;53.648;10.098;2023-08-06T15:42:41;18.20;99.90